sensor_id;sensor_type;location;lat;lon;timestamp;pressure;altitude;pressure_sealevel;temperature;humidity
75063;BME280;63981;51.052;13.754;2023-09-19T00:01:19;99671.38;;;16.83;93.75
75063;BME280;63981;51.052;13.754;2023-09-19T00:03:46;99682.03;;;16.83;93.92
75063;BME280;63981;51.052;13.754;2023-09-19T00:06:12;99678.53;;;16.83;93.95
75063;BME280;63981;51.052;13.754;2023-09-19T00:08:41;99673.72;;;16.86;93.54
75063;BME280;63981;51.052;13.754;2023-09-19T00:11:10;99676.91;;;16.90;93.51
75063;BME280;63981;51.052;13.754;2023-09-19T00:13:37;99684.88;;;16.90;92.49
75063;BME280;63981;51.052;13.754;2023-09-19T00:16:10;99689.38;;;16.89;93.09
75063;BME280;63981;51.052;13.754;2023-09-19T00:18:37;99676.06;;;16.89;92.97
75063;BME280;63981;51.052;13.754;2023-09-19T00:21:03;99682.38;;;16.88;93.00
75063;BME280;63981;51.052;13.754;2023-09-19T00:23:33;99681.22;;;16.91;93.39
75063;BME280;63981;51.052;13.754;2023-09-19T00:26:00;99676.75;;;16.91;93.14
75063;BME280;63981;51.052;13.754;2023-09-19T00:28:27;99672.56;;;16.89;93.09
75063;BME280;63981;51.052;13.754;2023-09-19T00:30:53;99662.25;;;16.86;92.93
75063;BME280;63981;51.052;13.754;2023-09-19T00:33:22;99658.44;;;16.88;92.84
75063;BME280;63981;51.052;13.754;2023-09-19T00:35:54;99667.25;;;16.89;92.73
75063;BME280;63981;51.052;13.754;2023-09-19T00:38:21;99658.59;;;16.87;92.73
75063;BME280;63981;51.052;13.754;2023-09-19T00:40:53;99664.91;;;16.86;93.56
75063;BME280;63981;51.052;13.754;2023-09-19T00:43:20;99651.91;;;16.83;92.38
75063;BME280;63981;51.052;13.754;2023-09-19T00:45:48;99655.91;;;16.87;92.91
75063;BME280;63981;51.052;13.754;2023-09-19T00:48:15;99652.44;;;16.86;92.64
75063;BME280;63981;51.052;13.754;2023-09-19T00:50:43;99658.22;;;16.82;92.88
75063;BME280;63981;51.052;13.754;2023-09-19T00:53:14;99653.75;;;16.82;92.72
75063;BME280;63981;51.052;13.754;2023-09-19T00:55:41;99650.53;;;16.78;93.55
75063;BME280;63981;51.052;13.754;2023-09-19T00:58:08;99653.75;;;16.82;93.24
75063;BME280;63981;51.052;13.754;2023-09-19T01:00:36;99654.56;;;16.83;93.45
75063;BME280;63981;51.052;13.754;2023-09-19T01:03:03;99629.88;;;16.72;93.22
75063;BME280;63981;51.052;13.754;2023-09-19T01:05:29;99658.06;;;16.83;92.87
75063;BME280;63981;51.052;13.754;2023-09-19T01:07:55;99661.41;;;16.85;93.25
75063;BME280;63981;51.052;13.754;2023-09-19T01:10:22;99649.09;;;16.84;93.46
75063;BME280;63981;51.052;13.754;2023-09-19T01:12:58;99664.06;;;16.85;93.73
75063;BME280;63981;51.052;13.754;2023-09-19T01:15:54;99654.84;;;16.79;93.54
75063;BME280;63981;51.052;13.754;2023-09-19T01:18:43;99672.38;;;16.82;92.53
75063;BME280;63981;51.052;13.754;2023-09-19T01:21:23;99675.31;;;16.79;93.63
75063;BME280;63981;51.052;13.754;2023-09-19T01:24:16;99689.78;;;16.76;93.88
75063;BME280;63981;51.052;13.754;2023-09-19T01:29:39;99682.00;;;16.65;93.78
75063;BME280;63981;51.052;13.754;2023-09-19T01:32:11;99680.50;;;16.63;93.85
75063;BME280;63981;51.052;13.754;2023-09-19T01:34:54;99683.41;;;16.69;93.62
75063;BME280;63981;51.052;13.754;2023-09-19T01:37:23;99686.75;;;16.71;94.45
75063;BME280;63981;51.052;13.754;2023-09-19T01:40:02;99677.94;;;16.71;93.58
75063;BME280;63981;51.052;13.754;2023-09-19T01:43:00;99684.94;;;16.72;93.82
75063;BME280;63981;51.052;13.754;2023-09-19T01:50:52;99678.25;;;16.68;94.04
75063;BME280;63981;51.052;13.754;2023-09-19T01:55:50;99679.50;;;16.64;93.50
75063;BME280;63981;51.052;13.754;2023-09-19T01:58:34;99673.34;;;16.63;93.48
75063;BME280;63981;51.052;13.754;2023-09-19T02:01:01;99690.28;;;16.62;93.34
75063;BME280;63981;51.052;13.754;2023-09-19T02:03:30;99682.47;;;16.61;93.60
75063;BME280;63981;51.052;13.754;2023-09-19T02:05:57;99694.31;;;16.66;94.22
75063;BME280;63981;51.052;13.754;2023-09-19T02:08:23;99696.13;;;16.66;94.00
75063;BME280;63981;51.052;13.754;2023-09-19T02:10:49;99702.28;;;16.66;93.65
75063;BME280;63981;51.052;13.754;2023-09-19T02:13:20;99693.91;;;16.71;93.50
75063;BME280;63981;51.052;13.754;2023-09-19T02:15:46;99697.41;;;16.71;92.98
75063;BME280;63981;51.052;13.754;2023-09-19T02:18:13;99688.91;;;16.68;92.96
75063;BME280;63981;51.052;13.754;2023-09-19T02:20:40;99680.50;;;16.63;93.29
75063;BME280;63981;51.052;13.754;2023-09-19T02:23:07;99685.50;;;16.66;93.48
75063;BME280;63981;51.052;13.754;2023-09-19T02:25:34;99688.94;;;16.58;93.28
75063;BME280;63981;51.052;13.754;2023-09-19T02:28:01;99699.13;;;16.63;92.49
75063;BME280;63981;51.052;13.754;2023-09-19T02:30:29;99705.94;;;16.65;92.77
75063;BME280;63981;51.052;13.754;2023-09-19T02:32:56;99697.97;;;16.65;91.99
75063;BME280;63981;51.052;13.754;2023-09-19T02:35:22;99711.69;;;16.70;92.54
75063;BME280;63981;51.052;13.754;2023-09-19T02:37:48;99701.88;;;16.71;91.87
75063;BME280;63981;51.052;13.754;2023-09-19T02:40:15;99711.38;;;16.73;92.10
75063;BME280;63981;51.052;13.754;2023-09-19T02:42:49;99704.72;;;16.69;92.84
75063;BME280;63981;51.052;13.754;2023-09-19T02:45:19;99714.75;;;16.66;92.37
75063;BME280;63981;51.052;13.754;2023-09-19T02:47:46;99727.66;;;16.70;92.60
75063;BME280;63981;51.052;13.754;2023-09-19T02:50:13;99731.16;;;16.71;92.37
75063;BME280;63981;51.052;13.754;2023-09-19T02:52:43;99715.50;;;16.68;93.02
75063;BME280;63981;51.052;13.754;2023-09-19T02:55:10;99715.59;;;16.66;92.54
75063;BME280;63981;51.052;13.754;2023-09-19T02:57:38;99711.28;;;16.65;93.11
75063;BME280;63981;51.052;13.754;2023-09-19T03:00:08;99717.44;;;16.66;91.61
75063;BME280;63981;51.052;13.754;2023-09-19T03:02:36;99717.84;;;16.71;91.92
75063;BME280;63981;51.052;13.754;2023-09-19T03:05:07;99725.53;;;16.74;91.99
75063;BME280;63981;51.052;13.754;2023-09-19T03:07:33;99721.50;;;16.70;90.64
75063;BME280;63981;51.052;13.754;2023-09-19T03:10:00;99736.41;;;16.80;90.42
75063;BME280;63981;51.052;13.754;2023-09-19T03:12:26;99736.09;;;16.84;90.59
75063;BME280;63981;51.052;13.754;2023-09-19T03:14:53;99732.75;;;16.82;89.17
75063;BME280;63981;51.052;13.754;2023-09-19T03:17:19;99737.63;;;16.86;90.56
75063;BME280;63981;51.052;13.754;2023-09-19T03:19:46;99742.94;;;16.86;89.03
75063;BME280;63981;51.052;13.754;2023-09-19T03:22:14;99753.28;;;16.89;89.16
75063;BME280;63981;51.052;13.754;2023-09-19T03:24:40;99749.63;;;16.90;89.48
75063;BME280;63981;51.052;13.754;2023-09-19T03:27:09;99753.94;;;16.91;89.53
75063;BME280;63981;51.052;13.754;2023-09-19T03:29:36;99760.44;;;16.89;89.21
75063;BME280;63981;51.052;13.754;2023-09-19T03:32:04;99751.75;;;16.87;89.38
75063;BME280;63981;51.052;13.754;2023-09-19T03:34:31;99749.78;;;16.89;90.13
75063;BME280;63981;51.052;13.754;2023-09-19T03:36:57;99754.59;;;16.85;89.91
75063;BME280;63981;51.052;13.754;2023-09-19T03:39:24;99751.91;;;16.85;89.30
75063;BME280;63981;51.052;13.754;2023-09-19T03:41:50;99748.72;;;16.82;89.50
75063;BME280;63981;51.052;13.754;2023-09-19T03:44:16;99748.72;;;16.82;89.16
75063;BME280;63981;51.052;13.754;2023-09-19T03:46:42;99743.56;;;16.80;90.17
75063;BME280;63981;51.052;13.754;2023-09-19T03:49:08;99749.16;;;16.77;88.59
75063;BME280;63981;51.052;13.754;2023-09-19T03:51:35;99752.50;;;16.79;88.04
75063;BME280;63981;51.052;13.754;2023-09-19T03:54:01;99749.84;;;16.79;88.21
75063;BME280;63981;51.052;13.754;2023-09-19T03:56:28;99749.56;;;16.82;87.79
75063;BME280;63981;51.052;13.754;2023-09-19T03:58:54;99753.91;;;16.83;88.32
75063;BME280;63981;51.052;13.754;2023-09-19T04:01:21;99753.91;;;16.83;88.64
75063;BME280;63981;51.052;13.754;2023-09-19T04:03:47;99762.56;;;16.85;87.75
75063;BME280;63981;51.052;13.754;2023-09-19T04:06:14;99754.22;;;16.80;88.60
75063;BME280;63981;51.052;13.754;2023-09-19T04:08:41;99765.00;;;16.78;87.70
75063;BME280;63981;51.052;13.754;2023-09-19T04:11:07;99764.16;;;16.78;87.32
75063;BME280;63981;51.052;13.754;2023-09-19T04:13:34;99768.22;;;16.82;86.51
75063;BME280;63981;51.052;13.754;2023-09-19T04:16:00;99769.72;;;16.85;86.30
75063;BME280;63981;51.052;13.754;2023-09-19T04:18:26;99770.09;;;16.90;86.24
75063;BME280;63981;51.052;13.754;2023-09-19T04:20:53;99768.66;;;16.95;85.80
75063;BME280;63981;51.052;13.754;2023-09-19T04:23:19;99777.00;;;17.00;85.39
75063;BME280;63981;51.052;13.754;2023-09-19T04:25:46;99768.50;;;16.97;85.53
75063;BME280;63981;51.052;13.754;2023-09-19T04:28:12;99765.69;;;16.98;84.65
75063;BME280;63981;51.052;13.754;2023-09-19T04:30:39;99766.72;;;17.05;83.62
75063;BME280;63981;51.052;13.754;2023-09-19T04:33:07;99761.31;;;17.15;81.68
75063;BME280;63981;51.052;13.754;2023-09-19T04:35:34;99764.03;;;17.23;82.56
75063;BME280;63981;51.052;13.754;2023-09-19T04:38:00;99765.41;;;17.27;81.74
75063;BME280;63981;51.052;13.754;2023-09-19T04:40:27;99774.91;;;17.30;82.43
75063;BME280;63981;51.052;13.754;2023-09-19T04:42:53;99771.72;;;17.26;82.13
75063;BME280;63981;51.052;13.754;2023-09-19T04:45:26;99782.22;;;17.28;82.41
75063;BME280;63981;51.052;13.754;2023-09-19T04:47:54;99784.56;;;17.31;80.25
75063;BME280;63981;51.052;13.754;2023-09-19T04:50:20;99789.44;;;17.35;81.10
75063;BME280;63981;51.052;13.754;2023-09-19T04:52:51;99788.97;;;17.40;79.77
75063;BME280;63981;51.052;13.754;2023-09-19T04:55:21;99788.47;;;17.45;79.94
75063;BME280;63981;51.052;13.754;2023-09-19T04:57:52;99786.53;;;17.47;79.93
75063;BME280;63981;51.052;13.754;2023-09-19T05:00:20;99794.19;;;17.50;79.41
75063;BME280;63981;51.052;13.754;2023-09-19T05:02:50;99787.03;;;17.50;79.87
75063;BME280;63981;51.052;13.754;2023-09-19T05:05:19;99799.69;;;17.48;79.97
75063;BME280;63981;51.052;13.754;2023-09-19T05:07:46;99810.53;;;17.55;79.56
75063;BME280;63981;51.052;13.754;2023-09-19T05:10:12;99803.72;;;17.52;78.71
75063;BME280;63981;51.052;13.754;2023-09-19T05:12:39;99805.34;;;17.45;79.38
75063;BME280;63981;51.052;13.754;2023-09-19T05:15:06;99819.84;;;17.51;79.90
75063;BME280;63981;51.052;13.754;2023-09-19T05:17:36;99824.88;;;17.54;79.25
75063;BME280;63981;51.052;13.754;2023-09-19T05:20:02;99824.88;;;17.54;79.23
75063;BME280;63981;51.052;13.754;2023-09-19T05:22:42;99831.88;;;17.55;79.50
75063;BME280;63981;51.052;13.754;2023-09-19T05:25:10;99832.69;;;17.55;77.39
75063;BME280;63981;51.052;13.754;2023-09-19T05:27:36;99828.91;;;17.58;77.39
75063;BME280;63981;51.052;13.754;2023-09-19T05:30:03;99821.28;;;17.63;77.25
75063;BME280;63981;51.052;13.754;2023-09-19T05:32:30;99833.28;;;17.67;77.14
75063;BME280;63981;51.052;13.754;2023-09-19T05:34:56;99823.16;;;17.71;76.42
75063;BME280;63981;51.052;13.754;2023-09-19T05:37:23;99819.22;;;17.75;76.11
75063;BME280;63981;51.052;13.754;2023-09-19T05:39:52;99822.41;;;17.78;75.98
75063;BME280;63981;51.052;13.754;2023-09-19T05:42:19;99836.63;;;17.87;75.65
75063;BME280;63981;51.052;13.754;2023-09-19T05:44:45;99839.28;;;17.87;74.96
75063;BME280;63981;51.052;13.754;2023-09-19T05:47:11;99837.97;;;17.91;75.77
75063;BME280;63981;51.052;13.754;2023-09-19T05:49:38;99842.97;;;17.94;75.95
75063;BME280;63981;51.052;13.754;2023-09-19T05:52:05;99848.03;;;17.97;75.66
75063;BME280;63981;51.052;13.754;2023-09-19T05:54:32;99856.53;;;18.01;75.20
75063;BME280;63981;51.052;13.754;2023-09-19T05:57:03;99849.53;;;18.00;75.69
75063;BME280;63981;51.052;13.754;2023-09-19T05:59:29;99860.56;;;18.05;75.46
75063;BME280;63981;51.052;13.754;2023-09-19T06:01:55;99858.56;;;18.07;74.89
75063;BME280;63981;51.052;13.754;2023-09-19T06:04:21;99852.06;;;18.09;74.45
75063;BME280;63981;51.052;13.754;2023-09-19T06:06:47;99850.59;;;18.15;74.74
75063;BME280;63981;51.052;13.754;2023-09-19T06:09:14;99853.94;;;18.17;74.54
75063;BME280;63981;51.052;13.754;2023-09-19T06:11:43;99859.34;;;18.25;73.91
75063;BME280;63981;51.052;13.754;2023-09-19T06:14:09;99860.34;;;18.24;73.72
75063;BME280;63981;51.052;13.754;2023-09-19T06:16:36;99858.34;;;18.26;73.58
75063;BME280;63981;51.052;13.754;2023-09-19T06:19:04;99863.84;;;18.33;74.79
75063;BME280;63981;51.052;13.754;2023-09-19T06:21:32;99877.88;;;18.35;73.92
75063;BME280;63981;51.052;13.754;2023-09-19T06:23:58;99877.88;;;18.35;73.87
75063;BME280;63981;51.052;13.754;2023-09-19T06:26:25;99886.72;;;18.35;74.24
75063;BME280;63981;51.052;13.754;2023-09-19T06:28:52;99898.75;;;18.39;73.81
75063;BME280;63981;51.052;13.754;2023-09-19T06:31:19;99894.25;;;18.40;73.42
75063;BME280;63981;51.052;13.754;2023-09-19T06:33:47;99896.75;;;18.41;73.18
75063;BME280;63981;51.052;13.754;2023-09-19T06:36:13;99899.28;;;18.43;73.44
75063;BME280;63981;51.052;13.754;2023-09-19T06:38:39;99896.44;;;18.44;72.56
75063;BME280;63981;51.052;13.754;2023-09-19T06:41:06;99908.84;;;18.53;73.55
75063;BME280;63981;51.052;13.754;2023-09-19T06:43:34;99906.19;;;18.62;72.88
75063;BME280;63981;51.052;13.754;2023-09-19T06:46:01;99901.06;;;18.68;72.54
75063;BME280;63981;51.052;13.754;2023-09-19T06:48:28;99909.78;;;18.78;71.56
75063;BME280;63981;51.052;13.754;2023-09-19T06:50:58;99917.69;;;18.88;72.06
75063;BME280;63981;51.052;13.754;2023-09-19T06:53:24;99920.34;;;18.96;71.13
75063;BME280;63981;51.052;13.754;2023-09-19T06:55:51;99915.38;;;19.01;71.27
75063;BME280;63981;51.052;13.754;2023-09-19T06:58:17;99928.91;;;19.08;70.69
75063;BME280;63981;51.052;13.754;2023-09-19T07:00:43;99934.78;;;19.20;70.01
75063;BME280;63981;51.052;13.754;2023-09-19T07:03:10;99934.13;;;19.34;69.14
75063;BME280;63981;51.052;13.754;2023-09-19T07:05:40;99938.16;;;19.46;69.21
75063;BME280;63981;51.052;13.754;2023-09-19T07:08:07;99936.72;;;19.68;68.87
75063;BME280;63981;51.052;13.754;2023-09-19T07:10:34;99936.03;;;19.74;68.60
75063;BME280;63981;51.052;13.754;2023-09-19T07:13:01;99944.22;;;19.89;66.73
75063;BME280;63981;51.052;13.754;2023-09-19T07:15:29;99940.69;;;20.04;66.02
75063;BME280;63981;51.052;13.754;2023-09-19T07:17:56;99941.34;;;20.15;66.31
75063;BME280;63981;51.052;13.754;2023-09-19T07:20:24;99954.38;;;20.26;66.36
75063;BME280;63981;51.052;13.754;2023-09-19T07:22:55;99962.22;;;20.27;64.69
75063;BME280;63981;51.052;13.754;2023-09-19T07:25:21;99972.63;;;20.22;63.14
75063;BME280;63981;51.052;13.754;2023-09-19T07:27:47;99973.63;;;20.13;63.24
75063;BME280;63981;51.052;13.754;2023-09-19T07:30:13;99972.31;;;20.09;62.44
75063;BME280;63981;51.052;13.754;2023-09-19T07:32:40;99975.63;;;20.19;62.57
75063;BME280;63981;51.052;13.754;2023-09-19T07:35:07;99981.81;;;20.12;61.22
75063;BME280;63981;51.052;13.754;2023-09-19T07:37:33;99974.47;;;20.14;60.84
75063;BME280;63981;51.052;13.754;2023-09-19T07:40:00;99978.16;;;20.21;59.22
75063;BME280;63981;51.052;13.754;2023-09-19T07:42:33;99984.47;;;20.44;59.46
75063;BME280;63981;51.052;13.754;2023-09-19T07:45:01;99988.63;;;20.63;58.80
75063;BME280;63981;51.052;13.754;2023-09-19T07:47:27;99995.56;;;20.88;56.11
75063;BME280;63981;51.052;13.754;2023-09-19T07:49:56;99990.00;;;20.98;57.45
75063;BME280;63981;51.052;13.754;2023-09-19T07:52:22;99989.91;;;21.14;57.77
75063;BME280;63981;51.052;13.754;2023-09-19T07:54:48;99983.63;;;21.38;56.76
75063;BME280;63981;51.052;13.754;2023-09-19T07:57:15;99992.84;;;21.59;55.91
75063;BME280;63981;51.052;13.754;2023-09-19T07:59:41;99998.88;;;21.61;54.12
75063;BME280;63981;51.052;13.754;2023-09-19T08:02:08;99991.38;;;21.56;53.65
75063;BME280;63981;51.052;13.754;2023-09-19T08:04:45;99995.34;;;21.60;55.37
75063;BME280;63981;51.052;13.754;2023-09-19T08:07:15;99982.19;;;21.51;54.15
75063;BME280;63981;51.052;13.754;2023-09-19T08:09:41;99989.59;;;21.48;54.19
75063;BME280;63981;51.052;13.754;2023-09-19T08:12:07;99999.06;;;21.36;52.97
75063;BME280;63981;51.052;13.754;2023-09-19T08:14:36;99994.34;;;21.38;54.18
75063;BME280;63981;51.052;13.754;2023-09-19T08:17:07;99997.50;;;21.42;52.97
75063;BME280;63981;51.052;13.754;2023-09-19T08:19:34;100004.25;;;21.61;52.67
75063;BME280;63981;51.052;13.754;2023-09-19T08:22:00;100001.16;;;21.72;51.39
75063;BME280;63981;51.052;13.754;2023-09-19T08:24:30;100011.69;;;21.96;53.22
75063;BME280;63981;51.052;13.754;2023-09-19T08:26:57;100004.31;;;22.21;52.24
75063;BME280;63981;51.052;13.754;2023-09-19T08:29:24;100011.47;;;22.44;51.49
75063;BME280;63981;51.052;13.754;2023-09-19T08:31:57;100006.38;;;22.63;50.47
75063;BME280;63981;51.052;13.754;2023-09-19T08:34:24;99997.81;;;22.83;49.57
75063;BME280;63981;51.052;13.754;2023-09-19T08:36:54;100007.22;;;23.23;48.85
75063;BME280;63981;51.052;13.754;2023-09-19T08:39:24;100017.88;;;23.31;48.31
75063;BME280;63981;51.052;13.754;2023-09-19T08:42:00;100019.00;;;23.22;47.60
75063;BME280;63981;51.052;13.754;2023-09-19T08:44:27;100026.63;;;23.18;48.91
75063;BME280;63981;51.052;13.754;2023-09-19T08:47:09;100032.00;;;23.18;50.47
75063;BME280;63981;51.052;13.754;2023-09-19T08:50:01;100029.75;;;23.22;49.75
75063;BME280;63981;51.052;13.754;2023-09-19T08:52:41;100033.56;;;23.13;50.49
75063;BME280;63981;51.052;13.754;2023-09-19T08:55:11;100023.28;;;23.02;50.34
75063;BME280;63981;51.052;13.754;2023-09-19T08:57:38;100026.91;;;22.94;50.11
75063;BME280;63981;51.052;13.754;2023-09-19T09:00:08;100037.19;;;22.90;50.26
75063;BME280;63981;51.052;13.754;2023-09-19T09:02:38;100030.69;;;22.70;50.91
75063;BME280;63981;51.052;13.754;2023-09-19T09:05:10;100025.31;;;22.55;50.75
75063;BME280;63981;51.052;13.754;2023-09-19T09:07:40;100030.19;;;22.52;51.60
75063;BME280;63981;51.052;13.754;2023-09-19T09:10:07;100022.63;;;22.55;51.30
75063;BME280;63981;51.052;13.754;2023-09-19T09:12:35;100031.69;;;22.54;50.25
75063;BME280;63981;51.052;13.754;2023-09-19T09:15:07;100028.44;;;22.44;50.74
75063;BME280;63981;51.052;13.754;2023-09-19T09:17:34;100026.84;;;22.35;50.77
75063;BME280;63981;51.052;13.754;2023-09-19T09:20:00;100029.69;;;22.33;51.02
75063;BME280;63981;51.052;13.754;2023-09-19T09:22:27;100029.00;;;22.54;50.47
75063;BME280;63981;51.052;13.754;2023-09-19T09:24:54;100032.16;;;22.58;48.95
75063;BME280;63981;51.052;13.754;2023-09-19T09:27:20;100030.69;;;22.70;48.98
75063;BME280;63981;51.052;13.754;2023-09-19T09:29:51;100030.16;;;22.89;47.51
75063;BME280;63981;51.052;13.754;2023-09-19T09:34:53;100038.78;;;23.50;48.12
75063;BME280;63981;51.052;13.754;2023-09-19T09:37:20;100038.19;;;23.34;48.32
75063;BME280;63981;51.052;13.754;2023-09-19T09:39:55;100038.94;;;23.13;47.75
75063;BME280;63981;51.052;13.754;2023-09-19T09:42:33;100049.34;;;23.01;48.24
75063;BME280;63981;51.052;13.754;2023-09-19T09:45:22;100056.25;;;22.66;47.57
75063;BME280;63981;51.052;13.754;2023-09-19T09:47:54;100049.91;;;22.44;48.98
75063;BME280;63981;51.052;13.754;2023-09-19T09:50:27;100059.22;;;22.56;47.59
75063;BME280;63981;51.052;13.754;2023-09-19T09:52:56;100045.88;;;22.78;47.35
75063;BME280;63981;51.052;13.754;2023-09-19T09:56:03;100045.59;;;23.17;47.84
75063;BME280;63981;51.052;13.754;2023-09-19T09:58:34;100043.34;;;23.50;46.40
75063;BME280;63981;51.052;13.754;2023-09-19T10:01:01;100050.06;;;23.75;46.62
75063;BME280;63981;51.052;13.754;2023-09-19T10:03:41;100041.47;;;23.65;46.64
75063;BME280;63981;51.052;13.754;2023-09-19T10:06:14;100044.34;;;23.64;46.46
75063;BME280;63981;51.052;13.754;2023-09-19T10:09:03;100034.75;;;23.97;46.47
75063;BME280;63981;51.052;13.754;2023-09-19T10:12:18;100029.53;;;24.38;44.25
75063;BME280;63981;51.052;13.754;2023-09-19T10:14:47;100038.88;;;24.70;44.56
75063;BME280;63981;51.052;13.754;2023-09-19T10:17:16;100030.66;;;25.13;44.50
75063;BME280;63981;51.052;13.754;2023-09-19T10:22:16;100040.25;;;26.03;40.97
75063;BME280;63981;51.052;13.754;2023-09-19T10:24:47;100036.13;;;26.54;40.23
75063;BME280;63981;51.052;13.754;2023-09-19T10:27:19;100036.47;;;27.03;37.71
75063;BME280;63981;51.052;13.754;2023-09-19T10:29:51;100038.63;;;27.33;38.07
75063;BME280;63981;51.052;13.754;2023-09-19T10:32:18;100037.06;;;27.57;37.12
75063;BME280;63981;51.052;13.754;2023-09-19T10:34:46;100040.09;;;27.80;36.71
75063;BME280;63981;51.052;13.754;2023-09-19T10:37:13;100033.84;;;27.80;35.90
75063;BME280;63981;51.052;13.754;2023-09-19T10:39:45;100038.16;;;28.12;36.01
75063;BME280;63981;51.052;13.754;2023-09-19T10:42:14;100028.72;;;28.21;34.14
75063;BME280;63981;51.052;13.754;2023-09-19T10:44:45;100029.31;;;28.73;34.29
75063;BME280;63981;51.052;13.754;2023-09-19T10:47:11;100026.28;;;29.55;34.19
75063;BME280;63981;51.052;13.754;2023-09-19T10:49:45;100039.09;;;29.66;32.34
75063;BME280;63981;51.052;13.754;2023-09-19T10:52:13;100025.88;;;29.21;31.26
75063;BME280;63981;51.052;13.754;2023-09-19T10:54:50;100034.81;;;28.92;31.19
75063;BME280;63981;51.052;13.754;2023-09-19T10:57:21;100037.22;;;28.75;31.41
75063;BME280;63981;51.052;13.754;2023-09-19T11:00:08;100028.91;;;28.95;31.93
75063;BME280;63981;51.052;13.754;2023-09-19T11:05:38;100020.94;;;30.55;30.08
75063;BME280;63981;51.052;13.754;2023-09-19T11:08:07;100017.25;;;31.48;29.25
75063;BME280;63981;51.052;13.754;2023-09-19T11:13:26;100010.88;;;31.43;28.27
75063;BME280;63981;51.052;13.754;2023-09-19T11:18:52;100009.28;;;31.30;27.50
75063;BME280;63981;51.052;13.754;2023-09-19T11:26:50;100016.38;;;31.59;28.12
75063;BME280;63981;51.052;13.754;2023-09-19T11:29:24;100013.16;;;31.62;27.62
75063;BME280;63981;51.052;13.754;2023-09-19T11:31:51;100019.00;;;31.83;27.63
75063;BME280;63981;51.052;13.754;2023-09-19T11:37:03;100022.00;;;31.69;27.60
75063;BME280;63981;51.052;13.754;2023-09-19T11:40:08;100030.19;;;29.89;29.15
75063;BME280;63981;51.052;13.754;2023-09-19T11:42:44;100026.63;;;28.48;30.60
75063;BME280;63981;51.052;13.754;2023-09-19T11:48:24;100020.75;;;27.70;31.42
75063;BME280;63981;51.052;13.754;2023-09-19T11:50:54;100025.38;;;28.26;31.99
75063;BME280;63981;51.052;13.754;2023-09-19T11:53:22;100018.16;;;28.13;30.48
75063;BME280;63981;51.052;13.754;2023-09-19T11:55:49;100021.81;;;28.01;31.79
75063;BME280;63981;51.052;13.754;2023-09-19T11:58:16;100026.63;;;27.60;32.47
75063;BME280;63981;51.052;13.754;2023-09-19T12:00:45;100026.72;;;28.10;31.66
75063;BME280;63981;51.052;13.754;2023-09-19T12:03:12;100023.22;;;27.78;31.47
75063;BME280;63981;51.052;13.754;2023-09-19T12:05:40;100019.03;;;28.07;31.83
75063;BME280;63981;51.052;13.754;2023-09-19T12:08:09;100020.53;;;27.72;32.73
75063;BME280;63981;51.052;13.754;2023-09-19T12:10:47;100026.78;;;27.27;34.04
75063;BME280;63981;51.052;13.754;2023-09-19T12:13:17;100020.91;;;28.07;33.39
75063;BME280;63981;51.052;13.754;2023-09-19T12:15:45;100018.16;;;28.13;31.97
75063;BME280;63981;51.052;13.754;2023-09-19T12:18:29;100015.75;;;28.30;32.60
75063;BME280;63981;51.052;13.754;2023-09-19T12:20:56;100029.03;;;27.82;34.06
75063;BME280;63981;51.052;13.754;2023-09-19T12:23:24;100023.28;;;27.97;34.38
75063;BME280;63981;51.052;13.754;2023-09-19T12:25:52;100029.84;;;27.82;34.41
75063;BME280;63981;51.052;13.754;2023-09-19T12:28:23;100024.56;;;28.19;33.74
75063;BME280;63981;51.052;13.754;2023-09-19T12:30:52;100023.56;;;29.06;32.89
75063;BME280;63981;51.052;13.754;2023-09-19T12:33:21;100016.81;;;28.91;33.11
75063;BME280;63981;51.052;13.754;2023-09-19T12:35:50;100010.31;;;28.73;33.03
75063;BME280;63981;51.052;13.754;2023-09-19T12:38:28;100024.88;;;28.36;33.73
75063;BME280;63981;51.052;13.754;2023-09-19T12:40:55;100008.56;;;28.11;32.68
75063;BME280;63981;51.052;13.754;2023-09-19T12:43:22;100021.50;;;27.84;34.34
75063;BME280;63981;51.052;13.754;2023-09-19T12:45:48;100021.75;;;27.38;34.78
75063;BME280;63981;51.052;13.754;2023-09-19T12:48:24;100027.63;;;27.35;34.78
75063;BME280;63981;51.052;13.754;2023-09-19T12:51:07;100019.66;;;27.40;34.10
75063;BME280;63981;51.052;13.754;2023-09-19T12:53:40;100022.22;;;27.28;34.32
75063;BME280;63981;51.052;13.754;2023-09-19T12:56:13;100017.91;;;27.07;35.65
75063;BME280;63981;51.052;13.754;2023-09-19T13:01:15;100011.47;;;26.95;34.86
75063;BME280;63981;51.052;13.754;2023-09-19T13:03:42;100010.78;;;27.19;35.62
75063;BME280;63981;51.052;13.754;2023-09-19T13:06:08;100018.78;;;27.46;34.93
75063;BME280;63981;51.052;13.754;2023-09-19T13:08:37;100027.84;;;27.71;34.60
75063;BME280;63981;51.052;13.754;2023-09-19T13:11:13;100010.66;;;27.84;33.43
75063;BME280;63981;51.052;13.754;2023-09-19T13:13:45;100018.38;;;27.87;34.11
75063;BME280;63981;51.052;13.754;2023-09-19T13:16:14;100014.53;;;27.63;33.85
75063;BME280;63981;51.052;13.754;2023-09-19T13:21:17;100012.16;;;28.79;32.50
75063;BME280;63981;51.052;13.754;2023-09-19T13:23:54;100010.69;;;29.50;31.99
75063;BME280;63981;51.052;13.754;2023-09-19T13:26:25;100008.00;;;29.32;31.13
75063;BME280;63981;51.052;13.754;2023-09-19T13:28:51;100006.88;;;29.81;29.94
75063;BME280;63981;51.052;13.754;2023-09-19T13:31:17;99999.38;;;29.95;29.58
75063;BME280;63981;51.052;13.754;2023-09-19T13:33:45;100005.00;;;29.82;30.33
75063;BME280;63981;51.052;13.754;2023-09-19T13:36:11;100004.50;;;29.73;30.09
75063;BME280;63981;51.052;13.754;2023-09-19T13:38:42;100005.66;;;29.65;29.41